F/V Fleur Des Vagues — FPEJ — position and weather

sailwx.info

Track history (hours):
 
Tides and Currents Weather Stations Pressure Air Temp Water Temp Dewpoint Dewpoint Depression Visibility Wind Speed Wind Dir Waves Ship Positions

F/V Fleur Des Vagues

Last reported at 2014-Sep-22 01:33 UTC. Time now 2014-Sep-22 02:16 UTC.
Position N 46°34' W 002°09'.

Length 16 m.

Type: Fishing. MMSI: 227893000.

Date/timePositionNaut miles runAvg speedWind from/ knotsBaromVisibWave heightAir tempDewpointWater temp
2014-Sep-22 01:33N 46°34' W 002°09'1 1.4
2014-Sep-22 00:34N 46°33' W 002°08'1 0.7
2014-Sep-21 23:33N 46°32' W 002°07'0 0.0
2014-Sep-21 22:33N 46°32' W 002°07'0 0.0
2014-Sep-21 21:33N 46°32' W 002°07'0 0.0
2014-Sep-21 20:33N 46°32' W 002°07'0 0.0
2014-Sep-21 19:33N 46°32' W 002°07'0 0.0
2014-Sep-21 18:33N 46°32' W 002°07'0 0.0
2014-Sep-21 17:33N 46°32' W 002°07'0 0.0
2014-Sep-21 16:33N 46°32' W 002°07'0 0.0
2014-Sep-21 15:33N 46°32' W 002°07'0 0.0
2014-Sep-21 14:33N 46°32' W 002°07'2 1.5
2014-Sep-21 13:23N 46°34' W 002°09'2 2.1
2014-Sep-21 12:34N 46°32' W 002°07'4 3.8
2014-Sep-21 11:32N 46°34' W 002°12'3 3.2
2014-Sep-21 10:33N 46°32' W 002°10'9 8.9
2014-Sep-21 09:33N 46°28' W 001°59'4 4.4
2014-Sep-21 08:33N 46°25' W 001°54'1 1.0
2014-Sep-21 07:33N 46°26' W 001°55'1 1.4
2014-Sep-21 06:34N 46°24' W 001°54'1 0.9
2014-Sep-21 05:33N 46°23' W 001°54'2 2.2
2014-Sep-21 04:33N 46°25' W 001°55'1 0.7
2014-Sep-21 03:34N 46°25' W 001°54'2 2.0
2014-Sep-21 02:33N 46°23' W 001°53'1 0.9
2014-Sep-21 01:33N 46°24' W 001°52'7 6.7
2014-Sep-21 00:33N 46°30' W 001°47'0 0.0
2014-Sep-20 23:33N 46°30' W 001°47'0 0.0
2014-Sep-20 22:33N 46°30' W 001°47'0 0.0
2014-Sep-20 21:33N 46°30' W 001°47'0 0.0
2014-Sep-20 20:33N 46°30' W 001°47'0 0.0
2014-Sep-20 19:33N 46°30' W 001°47'0 0.0
2014-Sep-20 18:33N 46°30' W 001°47'0 0.0
2014-Sep-20 17:33N 46°30' W 001°47'0 0.0
2014-Sep-20 16:33N 46°30' W 001°47'0 0.0
2014-Sep-20 15:33N 46°30' W 001°47'0 0.0
2014-Sep-20 14:33N 46°30' W 001°47'0 0.0
2014-Sep-20 13:33N 46°30' W 001°47'2 1.9
2014-Sep-20 12:33N 46°28' W 001°49'6 5.9
2014-Sep-20 11:33N 46°23' W 001°53'1 1.1
2014-Sep-20 10:33N 46°24' W 001°53'3 2.9
2014-Sep-20 09:33N 46°24' W 001°49'2 2.5
2014-Sep-20 08:33N 46°22' W 001°48'2 2.1
2014-Sep-20 07:33N 46°21' W 001°50'2 2.4
2014-Sep-20 06:33N 46°22' W 001°47'2 1.6
2014-Sep-20 05:33N 46°21' W 001°49'0 0.3
2014-Sep-20 04:33N 46°22' W 001°49'2 1.7
2014-Sep-20 03:33N 46°23' W 001°47'2 1.9
2014-Sep-20 02:33N 46°22' W 001°50'2 2.4
2014-Sep-20 01:33N 46°23' W 001°47'7 6.7
2014-Sep-20 00:33N 46°30' W 001°47'0 0.0
2014-Sep-19 23:33N 46°30' W 001°47'0 0.0
2014-Sep-19 22:33N 46°30' W 001°47'0 0.0
2014-Sep-19 21:33N 46°30' W 001°47'0 0.0
2014-Sep-19 20:33N 46°30' W 001°47'0 0.0
2014-Sep-19 19:33N 46°30' W 001°47'0 0.0
2014-Sep-19 18:33N 46°30' W 001°47'0 0.0
2014-Sep-19 17:33N 46°30' W 001°47'0 0.0
2014-Sep-19 14:33N 46°30' W 001°47'3 3.0
2014-Sep-19 13:33N 46°27' W 001°47'4 4.2
2014-Sep-19 12:33N 46°23' W 001°47'2 1.8
2014-Sep-19 11:33N 46°21' W 001°49'4 4.1
2014-Sep-19 10:33N 46°25' W 001°47'5 4.6
2014-Sep-19 09:33N 46°30' W 001°47'0 0.2
2014-Sep-19 08:33N 46°30' W 001°47'0 0.0
2014-Sep-19 07:33N 46°30' W 001°47'3 2.9
2014-Sep-19 06:33N 46°29' W 001°51'8 8.5
2014-Sep-19 05:33N 46°35' W 001°60'9 8.7
2014-Sep-19 04:33N 46°41' W 002°09'67 8.4
2014-Sep-18 20:33N 47°32' W 003°14'8 8.2
2014-Sep-18 19:33N 47°38' W 003°21'5 5.4
2014-Sep-18 18:33N 47°44' W 003°22'  
2014-Sep-15 14:18N 47°44' W 003°22'0 0.0
2014-Sep-15 13:33N 47°44' W 003°22'  
2014-Sep-12 14:25N 47°44' W 003°22'0 0.0
2014-Sep-12 06:25N 47°44' W 003°22'  
Track history (hours):
 
Tides and Currents Weather Stations Pressure Air Temp Water Temp Dewpoint Dewpoint Depression Visibility Wind Speed Wind Dir Waves Ship Positions

F/V Fleur Des Vagues

Last reported at 2014-Sep-22 01:33 UTC. Time now 2014-Sep-22 02:16 UTC.
Position N 46°34' W 002°09'.

Length 16 m.

Type: Fishing. MMSI: 227893000.

Date/timePositionNaut miles runAvg speedWind from/ knotsBaromVisibWave heightAir tempDewpointWater temp
2014-Sep-22 01:33N 46°34' W 002°09'1 1.4
2014-Sep-22 00:34N 46°33' W 002°08'1 0.7
2014-Sep-21 23:33N 46°32' W 002°07'0 0.0
2014-Sep-21 22:33N 46°32' W 002°07'0 0.0
2014-Sep-21 21:33N 46°32' W 002°07'0 0.0
2014-Sep-21 20:33N 46°32' W 002°07'0 0.0
2014-Sep-21 19:33N 46°32' W 002°07'0 0.0
2014-Sep-21 18:33N 46°32' W 002°07'0 0.0
2014-Sep-21 17:33N 46°32' W 002°07'0 0.0
2014-Sep-21 16:33N 46°32' W 002°07'0 0.0
2014-Sep-21 15:33N 46°32' W 002°07'0 0.0
2014-Sep-21 14:33N 46°32' W 002°07'2 1.5
2014-Sep-21 13:23N 46°34' W 002°09'2 2.1
2014-Sep-21 12:34N 46°32' W 002°07'4 3.8
2014-Sep-21 11:32N 46°34' W 002°12'3 3.2
2014-Sep-21 10:33N 46°32' W 002°10'9 8.9
2014-Sep-21 09:33N 46°28' W 001°59'4 4.4
2014-Sep-21 08:33N 46°25' W 001°54'1 1.0
2014-Sep-21 07:33N 46°26' W 001°55'1 1.4
2014-Sep-21 06:34N 46°24' W 001°54'1 0.9
2014-Sep-21 05:33N 46°23' W 001°54'2 2.2
2014-Sep-21 04:33N 46°25' W 001°55'1 0.7
2014-Sep-21 03:34N 46°25' W 001°54'2 2.0
2014-Sep-21 02:33N 46°23' W 001°53'1 0.9
2014-Sep-21 01:33N 46°24' W 001°52'7 6.7
2014-Sep-21 00:33N 46°30' W 001°47'0 0.0
2014-Sep-20 23:33N 46°30' W 001°47'0 0.0
2014-Sep-20 22:33N 46°30' W 001°47'0 0.0
2014-Sep-20 21:33N 46°30' W 001°47'0 0.0
2014-Sep-20 20:33N 46°30' W 001°47'0 0.0
2014-Sep-20 19:33N 46°30' W 001°47'0 0.0
2014-Sep-20 18:33N 46°30' W 001°47'0 0.0
2014-Sep-20 17:33N 46°30' W 001°47'0 0.0
2014-Sep-20 16:33N 46°30' W 001°47'0 0.0
2014-Sep-20 15:33N 46°30' W 001°47'0 0.0
2014-Sep-20 14:33N 46°30' W 001°47'0 0.0
2014-Sep-20 13:33N 46°30' W 001°47'2 1.9
2014-Sep-20 12:33N 46°28' W 001°49'6 5.9
2014-Sep-20 11:33N 46°23' W 001°53'1 1.1
2014-Sep-20 10:33N 46°24' W 001°53'3 2.9
2014-Sep-20 09:33N 46°24' W 001°49'2 2.5
2014-Sep-20 08:33N 46°22' W 001°48'2 2.1
2014-Sep-20 07:33N 46°21' W 001°50'2 2.4
2014-Sep-20 06:33N 46°22' W 001°47'2 1.6
2014-Sep-20 05:33N 46°21' W 001°49'0 0.3
2014-Sep-20 04:33N 46°22' W 001°49'2 1.7
2014-Sep-20 03:33N 46°23' W 001°47'2 1.9
2014-Sep-20 02:33N 46°22' W 001°50'2 2.4
2014-Sep-20 01:33N 46°23' W 001°47'7 6.7
2014-Sep-20 00:33N 46°30' W 001°47'0 0.0
2014-Sep-19 23:33N 46°30' W 001°47'0 0.0
2014-Sep-19 22:33N 46°30' W 001°47'0 0.0
2014-Sep-19 21:33N 46°30' W 001°47'0 0.0
2014-Sep-19 20:33N 46°30' W 001°47'0 0.0
2014-Sep-19 19:33N 46°30' W 001°47'0 0.0
2014-Sep-19 18:33N 46°30' W 001°47'0 0.0
2014-Sep-19 17:33N 46°30' W 001°47'0 0.0
2014-Sep-19 14:33N 46°30' W 001°47'3 3.0
2014-Sep-19 13:33N 46°27' W 001°47'4 4.2
2014-Sep-19 12:33N 46°23' W 001°47'2 1.8
2014-Sep-19 11:33N 46°21' W 001°49'4 4.1
2014-Sep-19 10:33N 46°25' W 001°47'5 4.6
2014-Sep-19 09:33N 46°30' W 001°47'0 0.2
2014-Sep-19 08:33N 46°30' W 001°47'0 0.0
2014-Sep-19 07:33N 46°30' W 001°47'3 2.9
2014-Sep-19 06:33N 46°29' W 001°51'8 8.5
2014-Sep-19 05:33N 46°35' W 001°60'9 8.7
2014-Sep-19 04:33N 46°41' W 002°09'67 8.4
2014-Sep-18 20:33N 47°32' W 003°14'8 8.2
2014-Sep-18 19:33N 47°38' W 003°21'5 5.4
2014-Sep-18 18:33N 47°44' W 003°22'  
2014-Sep-15 14:18N 47°44' W 003°22'0 0.0
2014-Sep-15 13:33N 47°44' W 003°22'  
2014-Sep-12 14:25N 47°44' W 003°22'0 0.0
2014-Sep-12 06:25N 47°44' W 003°22'  

Dump ship's entire track history